createdAt,value
2023-03-28T00:01:01.848Z,3.40
2023-03-28T00:03:29.657Z,2.00
2023-03-28T00:06:00.941Z,1.90
2023-03-28T00:08:29.106Z,1.80
2023-03-28T00:11:07.501Z,1.80
2023-03-28T00:13:35.300Z,1.90
2023-03-28T00:16:08.847Z,3.00
2023-03-28T00:18:39.113Z,1.80
2023-03-28T00:21:19.481Z,1.80
2023-03-28T00:43:41.083Z,1.40
2023-03-28T00:46:21.015Z,1.40
2023-03-28T00:48:54.723Z,1.50
2023-03-28T00:51:26.984Z,1.40
2023-03-28T00:54:01.225Z,1.50
2023-03-28T00:56:31.545Z,1.50
2023-03-28T00:59:02.880Z,1.40
2023-03-28T01:04:05.535Z,1.30
2023-03-28T01:06:40.496Z,1.30
2023-03-28T01:11:39.035Z,1.20
2023-03-28T01:14:07.549Z,1.40
2023-03-28T01:19:21.900Z,1.40
2023-03-28T01:22:06.652Z,1.90
2023-03-28T01:25:12.286Z,1.40
2023-03-28T01:30:34.041Z,1.40
2023-03-28T01:36:08.526Z,1.40
2023-03-28T01:39:05.105Z,1.50
2023-03-28T01:41:41.975Z,1.50
2023-03-28T01:44:32.373Z,0.20
2023-03-28T01:47:10.804Z,1.40
2023-03-28T01:49:56.750Z,0.20
2023-03-28T01:52:27.968Z,1.20
2023-03-28T01:55:28.418Z,1.10
2023-03-28T02:00:36.647Z,-0.20
2023-03-28T02:03:21.696Z,1.10
2023-03-28T02:05:58.079Z,1.10
2023-03-28T02:08:29.995Z,1.10
2023-03-28T02:14:01.406Z,1.00
2023-03-28T02:16:55.173Z,1.10
2023-03-28T02:19:55.043Z,1.00
2023-03-28T02:22:35.232Z,0.90
2023-03-28T02:28:11.486Z,1.00
2023-03-28T02:33:41.831Z,1.00
2023-03-28T02:36:29.172Z,0.90
2023-03-28T02:39:17.654Z,0.80
2023-03-28T02:42:06.314Z,0.50
2023-03-28T02:47:18.941Z,-0.50
2023-03-28T02:50:25.504Z,0.80
2023-03-28T02:58:10.448Z,0.90
2023-03-28T03:00:39.866Z,0.90
2023-03-28T03:03:10.485Z,0.90
2023-03-28T03:05:38.040Z,0.80
2023-03-28T04:20:55.360Z,0.70
2023-03-28T04:26:30.134Z,0.70
2023-03-28T05:03:06.949Z,0.20
2023-03-28T05:05:41.508Z,0.20
2023-03-28T05:08:12.973Z,0.20
2023-03-28T05:15:43.437Z,-0.10
2023-03-28T05:18:28.931Z,1.10
2023-03-28T05:25:54.246Z,0.00
2023-03-28T05:40:49.526Z,-0.20
2023-03-28T05:50:49.583Z,0.10
2023-03-28T06:23:25.490Z,1.50
2023-03-28T06:25:52.492Z,2.50
2023-03-28T06:31:04.746Z,2.50
2023-03-28T06:43:25.216Z,3.30
2023-03-28T06:48:44.418Z,2.40
2023-03-28T06:51:23.376Z,1.90
2023-03-28T07:06:31.329Z,3.60
2023-03-28T07:42:36.660Z,3.60
2023-03-28T08:02:27.849Z,6.80
2023-03-28T08:12:28.227Z,5.50
2023-03-28T08:17:23.800Z,6.30
2023-03-28T08:40:25.567Z,7.70
2023-03-28T08:43:03.814Z,7.80
2023-03-28T08:45:47.702Z,8.00
2023-03-28T08:48:20.635Z,8.10
2023-03-28T08:50:53.454Z,8.00
2023-03-28T08:53:39.172Z,8.10
2023-03-28T08:56:08.567Z,8.30
2023-03-28T08:58:47.740Z,7.20
2023-03-28T09:06:28.761Z,8.90
2023-03-28T09:11:56.780Z,8.90
2023-03-28T09:14:41.855Z,9.90
2023-03-28T09:17:52.476Z,9.20
2023-03-28T09:23:24.927Z,9.00
2023-03-28T09:26:24.251Z,10.20
2023-03-28T09:29:14.671Z,8.90
2023-03-28T09:31:47.346Z,8.80
2023-03-28T09:34:27.356Z,8.60
2023-03-28T09:37:16.307Z,8.90
2023-03-28T09:39:49.476Z,8.90
2023-03-28T09:42:24.980Z,9.80
2023-03-28T09:45:23.977Z,8.90
2023-03-28T09:52:58.328Z,8.10
2023-03-28T09:55:29.414Z,9.10
2023-03-28T09:58:08.588Z,9.20
2023-03-28T10:00:55.170Z,9.30
2023-03-28T10:06:46.223Z,9.20
2023-03-28T10:09:23.719Z,9.30
2023-03-28T10:12:08.377Z,9.40
2023-03-28T10:17:18.818Z,9.20
2023-03-28T10:19:48.966Z,10.40
2023-03-28T10:22:27.130Z,9.00
2023-03-28T10:27:33.586Z,9.40
2023-03-28T10:30:16.795Z,9.00
2023-03-28T10:35:26.928Z,9.10
2023-03-28T10:38:19.265Z,9.20
2023-03-28T10:41:29.263Z,7.70
2023-03-28T10:44:26.583Z,9.00
2023-03-28T10:47:10.645Z,9.00
2023-03-28T10:49:48.851Z,8.10
2023-03-28T10:52:21.323Z,9.20
2023-03-28T10:55:09.831Z,9.30
2023-03-28T11:00:29.808Z,9.90
2023-03-28T11:03:15.466Z,10.20
2023-03-28T11:06:08.766Z,10.40
2023-03-28T11:09:11.474Z,10.80
2023-03-28T11:12:19.853Z,10.90
2023-03-28T11:15:13.548Z,11.00
2023-03-28T11:17:56.099Z,11.00
2023-03-28T11:20:34.763Z,11.20
2023-03-28T11:23:19.593Z,10.10
2023-03-28T11:26:41.841Z,11.10
2023-03-28T11:29:53.393Z,12.30
2023-03-28T11:32:50.906Z,9.90
2023-03-28T11:35:31.019Z,11.00
2023-03-28T11:38:11.205Z,11.40
2023-03-28T11:40:59.396Z,11.90
2023-03-28T11:43:58.763Z,12.90
2023-03-28T11:46:51.586Z,12.90
2023-03-28T11:49:34.806Z,13.20
2023-03-28T11:52:14.592Z,13.40
2023-03-28T11:55:01.506Z,14.40
2023-03-28T11:58:07.075Z,13.70
2023-03-28T12:00:45.943Z,13.80
2023-03-28T12:03:29.232Z,12.70
2023-03-28T12:06:15.633Z,13.60
2023-03-28T12:08:51.622Z,11.30
2023-03-28T12:11:25.668Z,12.10
2023-03-28T12:14:23.676Z,12.00
2023-03-28T12:16:53.812Z,11.90
2023-03-28T12:19:33.798Z,12.90
2023-03-28T12:22:15.010Z,10.00
2023-03-28T12:24:59.579Z,11.10
2023-03-28T12:27:53.330Z,12.60
2023-03-28T12:30:50.717Z,11.00
2023-03-28T12:33:38.008Z,9.50
2023-03-28T12:36:26.127Z,10.30
2023-03-28T12:39:01.932Z,10.10
2023-03-28T12:41:39.220Z,8.70
2023-03-28T12:44:24.858Z,8.90
2023-03-28T12:50:13.343Z,10.60
2023-03-28T12:52:43.913Z,8.20
2023-03-28T12:55:24.666Z,8.20
2023-03-28T12:58:13.793Z,9.50
2023-03-28T13:01:09.565Z,10.90
2023-03-28T13:03:45.436Z,9.60
2023-03-28T13:06:45.960Z,9.60
2023-03-28T13:09:46.749Z,9.50
2023-03-28T13:12:32.393Z,9.80
2023-03-28T13:15:23.948Z,9.60
2023-03-28T13:18:22.908Z,10.60
2023-03-28T13:20:51.986Z,9.10
2023-03-28T13:23:28.364Z,9.60
2023-03-28T13:25:57.488Z,9.60
2023-03-28T13:28:33.232Z,9.70
2023-03-28T13:31:12.147Z,10.30
2023-03-28T13:34:01.477Z,9.90
2023-03-28T13:36:33.563Z,9.90
2023-03-28T13:39:22.268Z,11.30
2023-03-28T13:46:46.303Z,10.70
2023-03-28T13:49:38.527Z,10.90
2023-03-28T13:52:17.357Z,11.60
2023-03-28T13:54:45.957Z,12.50
2023-03-28T13:57:17.843Z,11.70
2023-03-28T13:59:52.657Z,11.80
2023-03-28T14:02:30.820Z,13.00
2023-03-28T14:05:12.529Z,11.70
2023-03-28T14:10:33.931Z,11.60
2023-03-28T14:13:22.711Z,11.30
2023-03-28T14:15:52.560Z,11.20
2023-03-28T14:18:35.953Z,12.50
2023-03-28T14:21:06.561Z,11.20
2023-03-28T14:23:36.750Z,11.10
2023-03-28T14:26:15.318Z,10.80
2023-03-28T14:28:46.107Z,10.90
2023-03-28T14:31:40.832Z,10.90
2023-03-28T14:34:38.614Z,10.90
2023-03-28T14:37:18.583Z,11.00
2023-03-28T14:42:18.444Z,10.90
2023-03-28T14:44:50.685Z,10.90
2023-03-28T14:47:30.058Z,10.80
2023-03-28T14:52:40.971Z,10.70
2023-03-28T14:55:14.638Z,10.60
2023-03-28T15:00:16.023Z,10.50
2023-03-28T15:05:14.311Z,11.40
2023-03-28T15:07:42.552Z,10.70
2023-03-28T15:13:05.235Z,11.00
2023-03-28T15:15:38.477Z,10.80
2023-03-28T15:18:12.092Z,10.80
2023-03-28T15:20:42.579Z,10.50
2023-03-28T15:23:16.840Z,9.00
2023-03-28T15:25:45.098Z,10.30
2023-03-28T15:28:18.188Z,10.20
2023-03-28T15:30:47.456Z,10.40
2023-03-28T15:33:19.175Z,10.20
2023-03-28T15:35:46.911Z,9.60
2023-03-28T15:40:43.591Z,10.00
2023-03-28T15:43:35.616Z,11.00
2023-03-28T15:46:07.843Z,10.00
2023-03-28T15:48:36.330Z,9.90
2023-03-28T15:51:14.378Z,10.00
2023-03-28T15:53:42.736Z,9.90
2023-03-28T15:56:22.736Z,9.90
2023-03-28T16:01:28.496Z,9.70
2023-03-28T16:04:25.599Z,9.80
2023-03-28T16:07:18.906Z,10.30
2023-03-28T16:09:46.628Z,10.20
2023-03-28T16:12:15.534Z,9.50
2023-03-28T16:15:03.680Z,9.50
2023-03-28T16:17:49.709Z,10.20
2023-03-28T16:30:22.799Z,9.20
2023-03-28T16:35:17.487Z,10.30
2023-03-28T16:45:08.997Z,9.90
2023-03-28T16:57:25.310Z,8.20
2023-03-28T17:02:19.540Z,9.60
2023-03-28T17:07:18.267Z,7.20
2023-03-28T17:51:36.780Z,8.40
2023-03-28T17:56:35.098Z,7.20
2023-03-28T18:01:29.354Z,7.10
2023-03-28T18:16:29.121Z,8.30
2023-03-28T18:26:19.380Z,7.80
2023-03-28T18:31:16.162Z,8.40
2023-03-28T18:33:43.782Z,7.10
2023-03-28T18:36:12.903Z,8.20
2023-03-28T18:38:44.022Z,8.20
2023-03-28T18:41:12.759Z,7.30
2023-03-28T18:43:42.359Z,8.20
2023-03-28T18:46:15.380Z,8.20
2023-03-28T18:56:07.331Z,8.00
2023-03-28T18:58:37.100Z,8.00
2023-03-28T19:03:36.274Z,8.00
2023-03-28T19:11:00.689Z,7.80
2023-03-28T19:13:29.344Z,6.80
2023-03-28T19:16:00.490Z,7.80
2023-03-28T19:20:56.163Z,6.50
2023-03-28T19:23:24.076Z,7.60
2023-03-28T19:28:19.482Z,7.50
2023-03-28T19:45:31.345Z,7.00
2023-03-28T20:17:27.733Z,5.70
2023-03-28T20:24:51.923Z,7.20
2023-03-28T20:44:38.316Z,7.00
2023-03-28T20:47:07.800Z,6.90
2023-03-28T20:59:27.250Z,7.90
2023-03-28T21:01:54.657Z,8.00
2023-03-28T21:04:22.492Z,6.80
2023-03-28T21:14:14.402Z,6.70
2023-03-28T21:24:04.922Z,6.50
2023-03-28T21:26:32.380Z,6.10
2023-03-28T21:31:29.065Z,6.50
2023-03-28T21:33:57.838Z,6.40
2023-03-28T21:36:26.827Z,6.30
2023-03-28T21:38:55.359Z,6.40
2023-03-28T21:56:12.624Z,5.10
2023-03-28T22:01:07.758Z,5.60
2023-03-28T22:03:38.112Z,6.50
2023-03-28T22:16:00.475Z,6.50
2023-03-28T22:25:50.991Z,6.40
2023-03-28T22:30:56.698Z,5.90
2023-03-28T22:40:47.621Z,7.20
2023-03-28T22:50:44.792Z,6.40
2023-03-28T23:03:02.205Z,6.10
2023-03-28T23:20:19.149Z,6.40
2023-03-28T23:22:47.543Z,6.50
2023-03-28T23:25:16.930Z,6.40
2023-03-28T23:30:13.662Z,6.40
2023-03-28T23:32:41.180Z,6.40
2023-03-28T23:42:44.283Z,7.20
2023-03-28T23:45:13.856Z,6.50
2023-03-28T23:50:09.380Z,6.40
